createdAt,value
2023-09-03T00:00:19.548Z,0
2023-09-03T00:05:19.676Z,0.03
2023-09-03T00:10:19.547Z,0.01
2023-09-03T00:15:19.765Z,0.03
2023-09-03T00:20:20.538Z,0.02
2023-09-03T00:25:16.492Z,0.02
2023-09-03T00:30:16.957Z,0.02
2023-09-03T00:35:16.890Z,0.03
2023-09-03T00:40:17.393Z,0
2023-09-03T00:45:17.544Z,0.01
2023-09-03T00:50:18.223Z,0.02
2023-09-03T00:55:16.323Z,0
2023-09-03T00:59:48.746Z,0.03
2023-09-03T01:04:48.851Z,0.01
2023-09-03T01:09:48.725Z,0.03
2023-09-03T01:14:48.250Z,0
2023-09-03T01:19:48.812Z,0.03
2023-09-03T01:24:48.478Z,0
2023-09-03T01:29:48.449Z,0.01
2023-09-03T01:34:45.680Z,0.03
2023-09-03T01:39:45.078Z,0
2023-09-03T01:44:44.913Z,0.03
2023-09-03T01:49:49.862Z,0.03
2023-09-03T01:54:44.375Z,0.01
2023-09-03T01:59:44.374Z,0
2023-09-03T02:04:44.931Z,0.03
2023-09-03T02:09:44.454Z,0
2023-09-03T02:14:45.693Z,0.02
2023-09-03T02:19:41.736Z,0.03
2023-09-03T02:24:41.109Z,0
2023-09-03T02:29:41.007Z,0.01
2023-09-03T02:34:41.385Z,0
2023-09-03T02:39:40.922Z,0.03
2023-09-03T02:44:41.020Z,0.03
2023-09-03T02:49:41.405Z,0
2023-09-03T02:54:41.255Z,0
2023-09-03T02:59:38.776Z,0.02
2023-09-03T03:01:40.596Z,0.03
2023-09-03T03:06:00.430Z,0
2023-09-03T03:11:00.677Z,0.02
2023-09-03T03:16:00.361Z,0
2023-09-03T03:21:00.356Z,0
2023-09-03T03:26:00.787Z,0.02
2023-09-03T03:31:00.676Z,0.01
2023-09-03T03:35:59.190Z,0
2023-09-03T03:40:59.337Z,0.01
2023-09-03T03:45:59.310Z,0
2023-09-03T03:50:59.229Z,0
2023-09-03T03:55:58.745Z,0.03
2023-09-03T04:00:21.119Z,0.02
2023-09-03T04:05:20.981Z,0.03
2023-09-03T04:10:20.666Z,0.02
2023-09-03T04:15:20.564Z,0.01
2023-09-03T04:20:18.083Z,0
2023-09-03T04:25:17.429Z,0.03
2023-09-03T04:30:17.177Z,0.01
2023-09-03T04:35:17.651Z,0.06
2023-09-03T04:40:17.719Z,0.07
2023-09-03T04:45:17.670Z,0.2
2023-09-03T04:50:17.447Z,0.2
2023-09-03T04:55:17.268Z,0.31
2023-09-03T05:00:17.339Z,0.46
2023-09-03T05:05:17.617Z,0.68
2023-09-03T05:10:17.434Z,0.84
2023-09-03T05:15:17.949Z,1.08
2023-09-03T05:20:18.017Z,1.31
2023-09-03T05:25:18.621Z,1.51
2023-09-03T05:30:19.341Z,1.82
2023-09-03T05:35:16.273Z,2.12
2023-09-03T05:40:16.815Z,2.49
2023-09-03T05:45:17.084Z,2.82
2023-09-03T05:50:16.800Z,3.14
2023-09-03T05:55:17.284Z,3.42
2023-09-03T05:59:50.380Z,3.75
2023-09-03T06:04:48.989Z,4.13
2023-09-03T06:09:49.302Z,4.52
2023-09-03T06:14:49.108Z,4.91
2023-09-03T06:19:49.647Z,5.2
2023-09-03T06:24:49.397Z,5.46
2023-09-03T06:29:49.479Z,5.82
2023-09-03T06:34:49.960Z,6.16
2023-09-03T06:39:49.924Z,6.55
2023-09-03T06:44:48.556Z,6.94
2023-09-03T06:49:50.942Z,7.47
2023-09-03T06:54:48.788Z,8.25
2023-09-03T07:00:03.971Z,8.59
2023-09-03T07:04:48.381Z,8.91
2023-09-03T07:09:47.940Z,9.18
2023-09-03T07:14:48.396Z,9.32
2023-09-03T07:19:48.063Z,9.81
2023-09-03T07:24:48.154Z,10.91
2023-09-03T07:29:45.347Z,12.13
2023-09-03T07:34:46.550Z,12.83
2023-09-03T07:39:44.824Z,11.84
2023-09-03T07:44:44.975Z,14.71
2023-09-03T07:49:44.617Z,16.12
2023-09-03T07:54:45.290Z,16.43
2023-09-03T07:59:45.093Z,17.94
2023-09-03T08:01:47.017Z,18.01
2023-09-03T08:06:17.536Z,17.8
2023-09-03T08:11:17.676Z,18.55
2023-09-03T08:16:30.715Z,18.47
2023-09-03T08:21:18.706Z,20.03
2023-09-03T08:26:19.466Z,21.64
2023-09-03T08:31:19.886Z,19.99
2023-09-03T08:36:18.250Z,20.14
2023-09-03T08:41:18.473Z,18.12
2023-09-03T08:46:18.494Z,16.89
2023-09-03T08:51:18.451Z,17.34
2023-09-03T08:56:18.276Z,20.93
2023-09-03T09:00:41.134Z,22.21
2023-09-03T09:05:41.063Z,22.67
2023-09-03T09:10:39.640Z,23.27
2023-09-03T09:15:40.075Z,23.05
2023-09-03T09:20:39.635Z,24.68
2023-09-03T09:25:39.764Z,24.85
2023-09-03T09:30:39.617Z,23.26
2023-09-03T09:35:39.646Z,24.62
2023-09-03T09:40:40.067Z,25.18
2023-09-03T09:45:39.953Z,27.18
2023-09-03T09:50:38.413Z,29.3
2023-09-03T09:55:38.578Z,30.45
2023-09-03T10:00:17.255Z,32.57
2023-09-03T10:05:17.333Z,31.79
2023-09-03T10:10:18.001Z,31.2
2023-09-03T10:15:18.493Z,32.22
2023-09-03T10:20:19.386Z,33.58
2023-09-03T10:25:17.705Z,33.37
2023-09-03T10:30:17.755Z,35.41
2023-09-03T10:35:17.603Z,35.33
2023-09-03T10:40:17.843Z,34.95
2023-09-03T10:45:17.797Z,33.16
2023-09-03T10:50:18.186Z,33.36
2023-09-03T10:55:19.040Z,31
2023-09-03T10:59:47.577Z,30.31
2023-09-03T11:04:47.206Z,33.63
2023-09-03T11:09:47.317Z,32.38
2023-09-03T11:14:47.430Z,32.75
2023-09-03T11:19:46.783Z,30.13
2023-09-03T11:24:47.500Z,31.14
2023-09-03T11:29:49.099Z,34.11
2023-09-03T11:34:44.881Z,34.13
2023-09-03T11:39:44.182Z,34.69
2023-09-03T11:44:43.951Z,35.47
2023-09-03T11:49:44.221Z,34.53
2023-09-03T11:54:43.939Z,35.22
2023-09-03T11:59:48.859Z,34.6
2023-09-03T12:04:44.817Z,32.6
2023-09-03T12:09:43.929Z,32.49
2023-09-03T12:14:44.892Z,35.13
2023-09-03T12:19:41.166Z,28.75
2023-09-03T12:24:40.403Z,31.8
2023-09-03T12:29:52.529Z,35
2023-09-03T12:34:40.378Z,30.44
2023-09-03T12:39:40.289Z,28.1
2023-09-03T12:44:43.186Z,31.25
2023-09-03T12:49:43.175Z,24.84
2023-09-03T12:54:41.435Z,24.49
2023-09-03T12:59:37.690Z,28.21
2023-09-03T13:01:39.567Z,28.84
2023-09-03T13:05:59.306Z,27.8
2023-09-03T13:10:59.450Z,29.92
2023-09-03T13:15:59.132Z,31.53
2023-09-03T13:20:59.626Z,25.43
2023-09-03T13:26:14.377Z,23.03
2023-09-03T13:31:08.741Z,24.15
2023-09-03T13:35:57.917Z,19.43
2023-09-03T13:40:58.566Z,22.78
2023-09-03T13:45:58.502Z,19.56
2023-09-03T13:50:58.192Z,25.24
2023-09-03T13:55:57.572Z,21.86
2023-09-03T14:00:19.819Z,22.13
2023-09-03T14:05:19.866Z,21.48
2023-09-03T14:10:19.386Z,20.57
2023-09-03T14:15:19.323Z,22.05
2023-09-03T14:20:16.978Z,22.53
2023-09-03T14:25:16.488Z,20.46
2023-09-03T14:30:16.709Z,20.15
2023-09-03T14:35:16.087Z,18.59
2023-09-03T14:40:15.929Z,18.94
2023-09-03T14:45:16.112Z,17.02
2023-09-03T14:50:16.520Z,17.91
2023-09-03T14:55:15.618Z,17.03
2023-09-03T15:00:01.827Z,16.62
2023-09-03T15:05:01.217Z,15.7
2023-09-03T15:10:00.846Z,15.33
2023-09-03T15:15:01.010Z,15.96
2023-09-03T15:20:00.565Z,14.49
2023-09-03T15:25:02.874Z,12.82
2023-09-03T15:30:00.785Z,12.07
2023-09-03T15:35:00.200Z,12.25
2023-09-03T15:40:01.033Z,12.04
2023-09-03T15:44:57.246Z,10.62
2023-09-03T15:49:56.792Z,10.19
2023-09-03T15:54:56.435Z,9.92
2023-09-03T15:59:57.066Z,9.39
2023-09-03T16:04:56.757Z,9.41
2023-09-03T16:09:59.971Z,9.33
2023-09-03T16:14:56.840Z,8.88
2023-09-03T16:19:57.495Z,7.87
2023-09-03T16:24:53.546Z,7.36
2023-09-03T16:29:53.192Z,6.97
2023-09-03T16:34:52.948Z,6.79
2023-09-03T16:39:53.071Z,6.3
2023-09-03T16:44:52.737Z,5.56
2023-09-03T16:49:52.766Z,4.86
2023-09-03T16:54:53.104Z,4.22
2023-09-03T16:59:52.950Z,3.71
2023-09-03T17:04:53.742Z,3.21
2023-09-03T17:09:51.403Z,2.84
2023-09-03T17:14:51.033Z,2.48
2023-09-03T17:19:50.986Z,2.2
2023-09-03T17:24:50.575Z,1.9
2023-09-03T17:29:49.947Z,1.67
2023-09-03T17:34:49.989Z,1.39
2023-09-03T17:39:50.098Z,1.13
2023-09-03T17:44:48.588Z,0.89
2023-09-03T17:49:48.657Z,0.69
2023-09-03T17:54:48.178Z,0.46
2023-09-03T17:59:48.225Z,0.32
2023-09-03T18:04:47.481Z,0.22
2023-09-03T18:09:47.240Z,0.15
2023-09-03T18:14:47.422Z,0.06
2023-09-03T18:19:46.866Z,0.06
2023-09-03T18:24:46.704Z,0.02
2023-09-03T18:29:53.232Z,0.01
2023-09-03T18:34:43.325Z,0.02
2023-09-03T18:39:42.987Z,0.01
2023-09-03T18:44:43.092Z,0.01
2023-09-03T18:49:42.786Z,0.03
2023-09-03T18:54:42.695Z,0.03
2023-09-03T18:59:43.019Z,0.03
2023-09-03T19:04:42.726Z,0.01
2023-09-03T19:09:43.489Z,0.01
2023-09-03T19:14:44.555Z,0.03
2023-09-03T19:19:39.276Z,0
2023-09-03T19:24:39.427Z,0.01
2023-09-03T19:34:54.317Z,0.02
2023-09-03T19:39:39.071Z,0.02
2023-09-03T19:44:38.813Z,0.03
2023-09-03T19:49:39.853Z,0.03
2023-09-03T19:54:36.220Z,0
2023-09-03T19:59:35.720Z,0.03
2023-09-03T20:01:37.561Z,0.03
2023-09-03T20:05:58.100Z,0.03
2023-09-03T20:10:57.731Z,0.02
2023-09-03T20:15:57.913Z,0.03
2023-09-03T20:20:58.596Z,0
2023-09-03T20:25:58.210Z,0.02
2023-09-03T20:30:56.666Z,0.03
2023-09-03T20:35:57.001Z,0
2023-09-03T20:40:56.758Z,0.02
2023-09-03T20:45:56.691Z,0.03
2023-09-03T20:50:56.170Z,0.01
2023-09-03T20:55:56.422Z,0
2023-09-03T21:00:17.933Z,0.02
2023-09-03T21:05:15.957Z,0.03
2023-09-03T21:10:14.463Z,0.03
2023-09-03T21:15:14.661Z,0.03
2023-09-03T21:20:14.340Z,0.01
2023-09-03T21:25:14.401Z,0.02
2023-09-03T21:30:13.791Z,0.03
2023-09-03T21:35:25.212Z,0.03
2023-09-03T21:40:14.081Z,0.02
2023-09-03T21:45:13.693Z,0.03
2023-09-03T21:50:13.648Z,0.03
2023-09-03T21:55:10.952Z,0
2023-09-03T21:59:53.393Z,0.03
2023-09-03T22:05:03.235Z,0
2023-09-03T22:09:53.438Z,0.01
2023-09-03T22:14:53.044Z,0.01
2023-09-03T22:20:10.976Z,0.02
2023-09-03T22:24:53.371Z,0
2023-09-03T22:29:53.160Z,0.01
2023-09-03T22:34:51.100Z,0
2023-09-03T22:39:50.475Z,0.01
2023-09-03T22:44:50.060Z,0
2023-09-03T22:49:50.431Z,0
2023-09-03T22:54:49.838Z,0.03
2023-09-03T22:59:49.808Z,0.03
2023-09-03T23:04:50.113Z,0.03
2023-09-03T23:09:49.684Z,0.02
2023-09-03T23:14:50.757Z,0.03
2023-09-03T23:19:46.947Z,0
2023-09-03T23:24:46.496Z,0.01
2023-09-03T23:29:46.317Z,0
2023-09-03T23:34:46.563Z,0.02
2023-09-03T23:39:46.321Z,0
2023-09-03T23:44:46.376Z,0
2023-09-03T23:49:46.712Z,0.03
2023-09-03T23:54:46.718Z,0.01
2023-09-03T23:59:45.211Z,0.02
